Brownstown, IL (62418)

8:01 PM CDT on August 24, 2016 (GMT -0500)
St Elmo | | Change Station

Elev 591 ft 39.03 °N, 88.89 °W | Updated 7 minutes ago

Scattered Clouds
Scattered Clouds
82.3 °F
Feels Like 92 °F
N
0.0
Wind Variable Wind from SW
Gusts 1.0 mph

Today
High -- | Low -- °F
--% Chance of Precip.
Yesterday
High -- | Low -- °F
Precip. -- in
Pressure 30.04 in
Visibility 4.0 miles
Clouds Scattered Clouds 4400 ft
Scattered Clouds 5000 ft
Heat Index 92 °F
Dew Point 79 °F
Humidity 88%
Rainfall 0.00 in
Snow Depth Not available.
6:17 AM 7:37 PM
Waning Gibbous, 51% visible
METAR K1H2 250055Z AUTO 00000KT 4SM BR SCT044 SCT050 26/26 A3004 RMK AO2 T02630263
Pressure 30.04 in
Visibility 4.0 miles
Clouds Scattered Clouds 4400 ft
Scattered Clouds 5000 ft
Heat Index 92 °F
Dew Point 79 °F
Humidity 88%
Rainfall 0.00 in
Snow Depth Not available.
6:17 AM 7:37 PM
Waning Gibbous, 51% visible
METAR K1H2 250055Z AUTO 00000KT 4SM BR SCT044 SCT050 26/26 A3004 RMK AO2 T02630263

10-Day Weather Forecast

Almanac

Astronomy

Aug. 24, 2016 Rise Set
Actual Time
Civil Twilight
Nautical Twilight
Astronomical Twilight
Moon
Length of Visible Light
Length of Day
Tomorrow will be .
, % of the Moon is Illuminated

Today's Extremes

State Highs State Lows

Community

WunderPhotos

Upload Photos

1,934,757 photos uploaded!

WunderBlog® & News

Nearby

Air Quality

  Air Quality AQ Index Pollutant
Not available.

Snow Depth

Station Depth Elevation

Earthquake Activity

City Distance Mag. Time & Date
Minimum magnitude displayed is 2.5.

Coastal Water Temperatures

Place Temperature

Stations

Nearby Weather Stations

Station Location Temp. Windchill Dew Point Humidity Wind Precip. Elev Updated Type
                   

Watches & Warnings

There are currently no watches in effect.